createdAt,value
2023-01-20T00:04:00.987Z,43.67
2023-01-20T00:09:06.086Z,44.50
2023-01-20T00:14:11.635Z,46.72
2023-01-20T00:19:15.433Z,41.50
2023-01-20T00:24:19.525Z,38.00
2023-01-20T00:29:25.657Z,42.65
2023-01-20T00:34:29.338Z,41.30
2023-01-20T00:39:33.042Z,41.58
2023-01-20T00:44:37.899Z,40.72
2023-01-20T00:49:41.678Z,38.00
2023-01-20T00:54:45.340Z,40.03
2023-01-20T00:59:50.389Z,44.70
2023-01-20T01:04:53.814Z,43.70
2023-01-20T01:09:57.324Z,42.22
2023-01-20T01:15:03.079Z,44.30
2023-01-20T01:20:07.785Z,44.33
2023-01-20T01:25:11.900Z,43.38
2023-01-20T01:30:17.598Z,47.03
2023-01-20T01:35:21.516Z,48.08
2023-01-20T01:40:25.394Z,47.33
2023-01-20T01:45:31.579Z,42.75
2023-01-20T01:50:42.318Z,43.35
2023-01-20T01:55:52.069Z,44.45
2023-01-20T02:00:57.243Z,41.40
2023-01-20T02:06:01.358Z,44.67
2023-01-20T02:11:04.897Z,42.42
2023-01-20T02:16:19.534Z,43.72
2023-01-20T02:21:48.898Z,43.40
2023-01-20T02:27:01.137Z,40.72
2023-01-20T02:32:22.860Z,44.90
2023-01-20T02:37:29.778Z,45.28
2023-01-20T02:42:39.621Z,44.63
2023-01-20T02:47:52.555Z,41.45
2023-01-20T02:53:00.238Z,45.30
2023-01-20T02:58:08.655Z,44.00
2023-01-20T03:03:17.109Z,43.47
2023-01-20T03:08:23.188Z,43.53
2023-01-20T03:13:32.281Z,42.45
2023-01-20T03:18:40.736Z,40.70
2023-01-20T03:23:47.841Z,59.67
2023-01-20T03:28:52.377Z,71.47
2023-01-20T03:34:00.152Z,71.03
2023-01-20T03:39:04.459Z,49.85
2023-01-20T03:44:13.418Z,49.60
2023-01-20T03:49:26.588Z,44.72
2023-01-20T03:54:36.003Z,46.50
2023-01-20T03:59:41.887Z,47.83
2023-01-20T04:04:50.381Z,41.83
2023-01-20T04:09:58.077Z,39.78
2023-01-20T04:15:02.531Z,38.63
2023-01-20T04:20:10.439Z,41.63
2023-01-20T04:25:18.768Z,37.17
2023-01-20T04:30:22.604Z,36.15
2023-01-20T04:35:27.663Z,36.17
2023-01-20T04:40:31.203Z,37.30
2023-01-20T04:45:35.228Z,38.67
2023-01-20T04:50:41.869Z,39.90
2023-01-20T04:55:45.566Z,38.67
2023-01-20T05:00:49.086Z,39.65
2023-01-20T05:05:57.178Z,37.97
2023-01-20T05:11:00.668Z,38.83
2023-01-20T05:16:04.672Z,42.90
2023-01-20T05:21:10.163Z,41.35
2023-01-20T05:26:14.023Z,40.35
2023-01-20T05:31:18.703Z,41.28
2023-01-20T05:36:23.682Z,39.83
2023-01-20T05:41:27.161Z,40.35
2023-01-20T05:46:30.974Z,41.03
2023-01-20T05:51:35.993Z,42.28
2023-01-20T05:56:39.526Z,38.67
2023-01-20T06:01:43.122Z,38.10
2023-01-20T06:06:48.200Z,42.42
2023-01-20T06:11:52.546Z,42.20
2023-01-20T06:16:56.134Z,45.50
2023-01-20T06:22:01.276Z,44.63
2023-01-20T06:27:05.418Z,47.15
2023-01-20T06:32:09.735Z,41.63
2023-01-20T06:37:15.135Z,39.00
2023-01-20T06:42:19.075Z,39.20
2023-01-20T06:47:22.626Z,38.22
2023-01-20T06:52:27.626Z,37.50
2023-01-20T06:57:31.417Z,34.67
2023-01-20T07:02:35.228Z,37.72
2023-01-20T07:07:40.636Z,34.92
2023-01-20T07:12:44.401Z,34.92
2023-01-20T07:17:48.105Z,35.90
2023-01-20T07:22:52.943Z,37.72
2023-01-20T07:27:57.915Z,38.08
2023-01-20T07:33:02.489Z,39.85
2023-01-20T07:38:07.472Z,40.78
2023-01-20T07:43:11.213Z,39.45
2023-01-20T07:48:14.892Z,42.60
2023-01-20T07:53:19.787Z,53.70
2023-01-20T07:58:23.688Z,51.40
2023-01-20T08:03:27.539Z,51.03
2023-01-20T08:08:33.213Z,49.05
2023-01-20T08:13:37.042Z,44.60
2023-01-20T08:18:42.213Z,43.88
2023-01-20T08:23:47.071Z,43.13
2023-01-20T08:28:50.549Z,43.92
2023-01-20T08:33:55.841Z,43.92
2023-01-20T08:39:03.239Z,43.72
2023-01-20T08:44:08.845Z,42.95
2023-01-20T08:49:14.403Z,42.25
2023-01-20T08:54:19.479Z,41.40
2023-01-20T08:59:23.273Z,36.75
2023-01-20T09:04:26.827Z,39.47
2023-01-20T09:09:31.675Z,38.60
2023-01-20T09:14:35.095Z,36.80
2023-01-20T09:19:38.526Z,37.33
2023-01-20T09:24:43.391Z,37.78
2023-01-20T09:29:46.891Z,37.97
2023-01-20T09:34:53.304Z,35.60
2023-01-20T09:40:15.787Z,34.53
2023-01-20T09:45:26.245Z,33.38
2023-01-20T09:50:59.720Z,35.70
2023-01-20T09:56:11.600Z,34.57
2023-01-20T10:01:24.483Z,34.97
2023-01-20T10:06:34.538Z,33.97
2023-01-20T10:11:44.102Z,31.70
2023-01-20T10:16:55.404Z,27.58
2023-01-20T10:22:09.685Z,30.02
2023-01-20T10:27:14.788Z,28.45
2023-01-20T10:32:29.287Z,27.13
2023-01-20T10:37:33.411Z,25.20
2023-01-20T10:42:38.230Z,24.38
2023-01-20T10:47:49.493Z,23.98
2023-01-20T10:53:18.911Z,21.42
2023-01-20T10:58:26.847Z,19.38
2023-01-20T11:03:36.154Z,23.35
2023-01-20T11:08:39.620Z,25.08
2023-01-20T11:13:44.949Z,28.00
2023-01-20T11:18:58.383Z,34.72
2023-01-20T11:24:02.196Z,34.35
2023-01-20T11:29:29.025Z,34.28
2023-01-20T11:34:35.160Z,35.08
2023-01-20T11:39:45.157Z,38.72
2023-01-20T11:44:51.247Z,37.60
2023-01-20T11:50:26.330Z,39.53
2023-01-20T11:55:29.923Z,40.45
2023-01-20T12:00:40.540Z,41.58
2023-01-20T12:05:49.418Z,41.67
2023-01-20T12:10:55.839Z,38.47
2023-01-20T12:16:02.387Z,31.45
2023-01-20T12:21:18.410Z,30.35
2023-01-20T12:26:23.958Z,30.80
2023-01-20T12:31:29.173Z,32.90
2023-01-20T12:36:58.570Z,33.15
2023-01-20T12:42:35.451Z,32.35
2023-01-20T12:47:53.447Z,34.97
2023-01-20T12:53:11.752Z,31.70
2023-01-20T12:58:25.325Z,29.55
2023-01-20T13:03:57.635Z,29.35
2023-01-20T13:09:13.049Z,26.40
2023-01-20T13:14:22.045Z,26.75
2023-01-20T13:19:32.482Z,25.35
2023-01-20T13:24:37.375Z,24.35
2023-01-20T13:29:56.008Z,24.38
2023-01-20T13:35:04.310Z,25.40
2023-01-20T13:40:48.695Z,25.92
2023-01-20T13:46:46.707Z,29.40
2023-01-20T13:51:51.588Z,31.65
2023-01-20T13:57:45.423Z,27.30
2023-01-20T14:02:50.869Z,25.52
2023-01-20T14:07:56.982Z,19.40
2023-01-20T14:13:01.393Z,18.55
2023-01-20T14:18:06.212Z,19.55
2023-01-20T14:23:27.461Z,20.45
2023-01-20T14:28:31.555Z,22.45
2023-01-20T14:33:35.072Z,21.95
2023-01-20T14:38:55.741Z,24.42
2023-01-20T14:44:01.127Z,25.80
2023-01-20T14:49:06.201Z,25.60
2023-01-20T14:54:31.088Z,26.35
2023-01-20T14:59:34.935Z,23.10
2023-01-20T15:04:38.885Z,22.42
2023-01-20T15:09:51.629Z,23.45
2023-01-20T15:15:07.121Z,20.03
2023-01-20T15:20:28.743Z,18.40
2023-01-20T15:25:38.184Z,17.90
2023-01-20T15:30:41.803Z,15.38
2023-01-20T15:35:45.372Z,15.50
2023-01-20T15:40:50.485Z,17.35
2023-01-20T15:45:53.926Z,17.27
2023-01-20T15:50:57.382Z,19.27
2023-01-20T15:56:02.381Z,21.20
2023-01-20T16:01:06.165Z,20.73
2023-01-20T16:06:14.509Z,21.75
2023-01-20T16:11:20.335Z,23.15
2023-01-20T16:16:26.801Z,22.33
2023-01-20T16:21:32.190Z,25.17
2023-01-20T16:26:37.277Z,23.35
2023-01-20T16:31:40.692Z,26.52
2023-01-20T16:36:44.480Z,25.73
2023-01-20T16:41:50.065Z,27.77
2023-01-20T16:46:53.462Z,27.25
2023-01-20T16:51:57.162Z,26.88
2023-01-20T16:57:01.949Z,29.50
2023-01-20T17:02:05.677Z,28.77
2023-01-20T17:07:09.171Z,31.20
2023-01-20T17:12:14.025Z,32.33
2023-01-20T17:17:17.511Z,32.60
2023-01-20T17:22:20.956Z,29.73
2023-01-20T17:27:26.135Z,34.65
2023-01-20T17:32:29.547Z,39.83
2023-01-20T17:37:33.115Z,51.40
2023-01-20T17:42:39.415Z,46.38
2023-01-20T17:47:42.922Z,47.53
2023-01-20T17:52:50.488Z,49.03
2023-01-20T17:57:55.351Z,46.05
2023-01-20T18:02:58.787Z,43.42
2023-01-20T18:08:02.322Z,47.22
2023-01-20T18:13:07.286Z,45.58
2023-01-20T18:18:10.757Z,46.03
2023-01-20T18:23:14.188Z,45.90
2023-01-20T18:28:18.957Z,46.72
2023-01-20T18:33:22.431Z,44.17
2023-01-20T18:38:25.889Z,47.35
2023-01-20T18:43:31.320Z,44.38
2023-01-20T18:48:38.140Z,40.53
2023-01-20T18:53:43.529Z,43.00
2023-01-20T18:58:49.664Z,40.40
2023-01-20T19:03:53.466Z,43.65
2023-01-20T19:08:57.680Z,43.15
2023-01-20T19:14:03.840Z,41.40
2023-01-20T19:19:08.966Z,39.53
2023-01-20T19:24:20.092Z,41.10
2023-01-20T19:29:28.335Z,41.17
2023-01-20T19:34:33.732Z,47.17
2023-01-20T19:39:37.586Z,45.72
2023-01-20T19:44:42.456Z,44.22
2023-01-20T19:49:45.931Z,46.00
2023-01-20T19:54:51.808Z,45.40
2023-01-20T19:59:56.932Z,51.55
2023-01-20T20:05:00.594Z,46.40
2023-01-20T20:10:04.574Z,46.70
2023-01-20T20:15:10.696Z,49.08
2023-01-20T20:20:14.873Z,49.08
2023-01-20T20:25:18.541Z,48.38
2023-01-20T20:30:24.172Z,48.60
2023-01-20T20:35:27.761Z,50.20
2023-01-20T20:40:31.639Z,48.78
2023-01-20T20:45:36.412Z,48.08
2023-01-20T20:50:39.884Z,49.42
2023-01-20T20:55:44.052Z,46.42
2023-01-20T21:00:52.285Z,50.08
2023-01-20T21:05:55.896Z,51.13
2023-01-20T21:11:00.951Z,48.67
2023-01-20T21:16:09.730Z,51.00
2023-01-20T21:21:16.974Z,54.17
2023-01-20T21:26:23.228Z,54.75
2023-01-20T21:31:28.159Z,56.08
2023-01-20T21:36:33.934Z,54.70
2023-01-20T21:41:37.362Z,43.83
2023-01-20T21:46:42.194Z,43.33
2023-01-20T21:52:03.529Z,44.25
2023-01-20T21:57:07.625Z,40.65
2023-01-20T22:02:14.092Z,41.88
2023-01-20T22:07:18.614Z,40.10
2023-01-20T22:12:22.037Z,37.88
2023-01-20T22:17:27.135Z,38.60
2023-01-20T22:22:30.856Z,39.15
2023-01-20T22:27:34.353Z,35.20
2023-01-20T22:32:39.387Z,33.15
2023-01-20T22:37:42.886Z,37.75
2023-01-20T22:42:46.346Z,36.72
2023-01-20T22:47:51.105Z,35.80
2023-01-20T22:52:54.865Z,33.42
2023-01-20T22:58:00.600Z,35.63
2023-01-20T23:03:05.678Z,35.00
2023-01-20T23:08:09.379Z,33.78
2023-01-20T23:13:12.975Z,34.65
2023-01-20T23:18:18.771Z,31.67
2023-01-20T23:23:22.910Z,32.65
2023-01-20T23:28:26.681Z,33.65
2023-01-20T23:33:32.309Z,32.90
2023-01-20T23:38:35.752Z,33.42
2023-01-20T23:43:39.480Z,32.65
2023-01-20T23:48:46.402Z,34.72
2023-01-20T23:53:49.790Z,32.30
2023-01-20T23:58:54.266Z,34.55
